Fairmount City, PA (16224)

9:22 PM EDT on September 30, 2014 (GMT -0400)
Heathville Road | Change Station
CLOSE
Current Station
Personal Weather Station
Location: Summerville, PA
Elevation: 1217 ft
Nearby Weather Stations

Elev 1217 ft 41.11 °N, 79.18 °W | Updated 1 second ago

Overcast
Overcast
56.1 °F
Feels Like 56.1 °F
N
0.0
Wind Variable Wind from North
Gusts 0.0 mph

Today
High -- | Low -- °F
--% Chance of Precip.
Yesterday
High -- | Low -- °F
Precip. -- in
7:12 AM 7:00 PM
Waxing Crescent, 42% visible
Pressure 29.94 in
Visibility 10.0 miles
Clouds Overcast 6500 ft
Dew Point 53 °F
Humidity 89%
Rainfall 0.00 in
Snow Depth Not available.
UV 0 out of 12
Pollen 2.00 out of 12
Ozone Good
PM2.5 Good
Flu Activity Not available.
METAR KDUJ 010053Z AUTO 33003KT 10SM OVC065 14/12 A2994 RMK AO2 LTG DSNT NE SLP136 T01440122

More Conditions Fewer Conditions

Pressure 29.94 in
Visibility 10.0 miles
Clouds Overcast 6500 ft
Dew Point 53 °F
Humidity 89%
Rainfall 0.00 in
Snow Depth Not available.
UV 0 out of 12
Pollen 2.00 out of 12
Ozone Good
PM2.5 Good
Flu Activity Not available.
METAR KDUJ 010053Z AUTO 33003KT 10SM OVC065 14/12 A2994 RMK AO2 LTG DSNT NE SLP136 T01440122

More Conditions Fewer Conditions

10-Day Weather Forecast

Almanac

Astronomy

Sep. 30, 2014 Rise Set
Actual Time 7:12 AM EDT 7:00 PM EDT
Civil Twilight 6:45 AM EDT 7:28 PM EDT
Nautical Twilight 6:13 AM EDT 7:59 PM EDT
Astronomical Twilight 5:40 AM EDT 8:32 PM EDT
Moon 1:21 PM EDT (9/30) 11:26 PM EDT (9/30)
Length of Visible Light 12h 42m
Length of Day
11h 48m
Tomorrow will be 2m 42s shorter.
Waxing Crescent, 42% of the Moon is Illuminated
Today
Waxing Crescent
Oct 1
First Quarter
Oct 8
Full
Oct 15
Last Quarter
Oct 23
New

Today's Extremes

State Highs State Lows

Community

WunderPhotos

Upload Photos

1,757,815 photos uploaded!

Nearby

Air Quality

  Air Quality AQ Index Pollutant
Yesterday Moderate
PM2.5
Yesterday Good
OZONE
Current Good
PM2.5
Current Good
OZONE
Tuesday Moderate
PM2.5
Wednesday Moderate
PM2.5
Thursday Moderate
PM2.5

Snow Depth

Station Depth Elevation
No new snow has been reported.

Earthquake Activity

City Distance Mag. Time & Date
No recent earthquake activity has been reported nearby.
Minimum magnitude displayed is 2.5.

Coastal Water Temperatures

Place Temperature
No Stations Reporting

Nearby Weather Stations